Time;durP1;ratioP1;P1;durP2;ratioP2;P2;SDS_P1;SDS_P2;PMS_P1;PMS_P2;Temp;Humidity;BMP_temperature;BMP_pressure;BME280_temperature;BME280_humidity;BME280_pressure;Samples;Min_cycle;Max_cycle;Signal;HPM_P1;HPM_P2
2023/12/09 00:00:54;;;;;;;5.68;5.22;;;0.00;99.90;;;;;;4872603;29;20206;-81
2023/12/09 00:03:30;;;;;;;3.83;3.53;;;-0.10;99.90;;;;;;4882828;29;20628;-86
2023/12/09 00:06:23;;;;;;;8.20;5.90;;;-0.10;99.90;;;;;;4878024;29;20195;-83
2023/12/09 00:09:02;;;;;;;3.15;3.05;;;0.10;99.90;;;;;;4882898;29;20210;-85
2023/12/09 00:11:43;;;;;;;1.00;1.00;;;-0.10;99.90;;;;;;4866110;29;20210;-84
2023/12/09 00:14:52;;;;;;;4.97;4.63;;;-0.10;99.90;;;;;;4886897;29;20258;-87
2023/12/09 00:17:37;;;;;;;6.22;4.05;;;-0.10;99.90;;;;;;4875150;29;20237;-83
2023/12/09 00:21:02;;;;;;;2.60;2.40;;;-0.10;99.90;;;;;;4864613;29;20235;-84
2023/12/09 00:23:46;;;;;;;5.85;5.35;;;0.00;99.90;;;;;;4874382;29;20245;-85
2023/12/09 00:27:18;;;;;;;4.43;4.22;;;0.00;99.90;;;;;;4877998;29;20251;-85
2023/12/09 00:30:06;;;;;;;6.10;5.72;;;0.00;99.90;;;;;;4864132;29;20258;-83
2023/12/09 00:32:33;;;;;;;4.35;4.10;;;-0.10;99.90;;;;;;4875358;29;20215;-82
2023/12/09 00:35:03;;;;;;;4.07;3.63;;;0.00;99.90;;;;;;4861302;29;20220;-82
2023/12/09 00:37:31;;;;;;;3.22;3.08;;;0.00;99.90;;;;;;4845403;29;20222;-82
2023/12/09 00:40:00;;;;;;;9.60;5.22;;;0.00;99.90;;;;;;4875424;29;20280;-82
2023/12/09 00:42:27;;;;;;;7.40;4.20;;;0.00;99.90;;;;;;4874137;29;20250;-82
2023/12/09 00:44:56;;;;;;;3.47;3.38;;;-0.10;99.90;;;;;;4871921;29;20283;-83
2023/12/09 00:47:23;;;;;;;4.95;4.57;;;0.00;99.90;;;;;;4878869;29;20562;-82
2023/12/09 00:49:53;;;;;;;2.78;2.67;;;0.00;99.90;;;;;;4878868;29;20665;-82
2023/12/09 00:52:21;;;;;;;4.07;3.78;;;0.00;99.90;;;;;;4884399;29;20269;-82
2023/12/09 00:54:49;;;;;;;4.40;2.20;;;0.00;99.90;;;;;;4879190;29;20281;-82
2023/12/09 00:57:17;;;;;;;3.92;2.60;;;0.00;99.90;;;;;;4866788;29;20217;-82
2023/12/09 00:59:44;;;;;;;4.18;3.92;;;-0.10;99.90;;;;;;4860129;29;20234;-84
2023/12/09 01:02:14;;;;;;;4.82;4.63;;;-0.10;99.90;;;;;;4854515;29;20194;-86
2023/12/09 01:04:44;;;;;;;7.05;6.55;;;-0.10;99.90;;;;;;4877205;29;20230;-83
2023/12/09 01:07:12;;;;;;;3.03;2.92;;;-0.30;99.90;;;;;;4870712;29;20213;-86
2023/12/09 01:09:40;;;;;;;2.22;2.13;;;0.10;99.90;;;;;;4856832;29;20269;-85
2023/12/09 01:12:10;;;;;;;3.30;1.67;;;0.00;99.90;;;;;;4911503;29;20205;-85
2023/12/09 01:14:38;;;;;;;4.70;3.20;;;-0.10;99.90;;;;;;4912331;29;20212;-84
2023/12/09 01:17:06;;;;;;;5.05;4.50;;;-0.10;99.90;;;;;;4911315;29;20328;-86
2023/12/09 01:19:33;;;;;;;2.47;2.38;;;-0.10;99.90;;;;;;4917713;29;20229;-85
2023/12/09 01:22:01;;;;;;;5.93;5.53;;;-0.10;99.90;;;;;;4908641;29;20217;-84
2023/12/09 01:24:29;;;;;;;3.80;3.25;;;-0.10;99.90;;;;;;4920396;29;20285;-86
2023/12/09 01:27:01;;;;;;;2.25;2.15;;;-0.10;99.90;;;;;;4918302;29;20221;-90
2023/12/09 01:29:33;;;;;;;3.53;2.72;;;-0.10;99.90;;;;;;4902218;29;20210;-86
2023/12/09 01:32:01;;;;;;;8.50;6.70;;;-0.10;99.90;;;;;;4918749;29;20201;-87
2023/12/09 01:34:28;;;;;;;5.68;5.20;;;-0.10;99.90;;;;;;4922071;29;20225;-87
2023/12/09 01:36:57;;;;;;;4.55;4.35;;;-0.10;99.90;;;;;;4913240;29;20277;-86
2023/12/09 01:39:28;;;;;;;6.05;5.72;;;-0.10;99.90;;;;;;4916542;29;20268;-86
2023/12/09 01:41:56;;;;;;;8.23;7.53;;;0.00;99.90;;;;;;4914529;29;20712;-85
2023/12/09 01:44:25;;;;;;;7.25;6.55;;;0.00;99.90;;;;;;4912942;29;20241;-87
2023/12/09 01:46:52;;;;;;;5.47;5.00;;;0.00;99.90;;;;;;4908432;29;20217;-85
2023/12/09 01:49:25;;;;;;;7.85;7.13;;;0.00;99.90;;;;;;4919508;29;20223;-84
2023/12/09 01:51:52;;;;;;;3.95;3.58;;;0.00;99.90;;;;;;4906935;29;20493;-85
2023/12/09 01:54:21;;;;;;;6.90;6.40;;;0.00;99.90;;;;;;4917760;29;20234;-84
2023/12/09 01:56:58;;;;;;;21.45;6.80;;;0.00;99.90;;;;;;4914028;29;20204;-83
2023/12/09 01:59:29;;;;;;;5.65;5.35;;;0.10;99.90;;;;;;4906411;29;20280;-81
2023/12/09 02:01:57;;;;;;;5.22;4.82;;;0.10;99.90;;;;;;4918371;29;20254;-82
2023/12/09 02:04:26;;;;;;;9.65;6.35;;;0.10;99.90;;;;;;4922497;29;20553;-85
2023/12/09 02:06:53;;;;;;;6.07;5.50;;;0.10;99.90;;;;;;4911107;29;20205;-83
2023/12/09 02:09:20;;;;;;;3.80;3.25;;;0.10;99.90;;;;;;4921909;29;20240;-82
2023/12/09 02:12:05;;;;;;;2.78;2.58;;;0.10;99.90;;;;;;4918616;29;20247;-81
2023/12/09 02:14:32;;;;;;;3.85;3.65;;;0.10;99.90;;;;;;4904324;29;20427;-82
2023/12/09 02:17:10;;;;;;;3.42;3.22;;;0.20;99.90;;;;;;4903676;29;20281;-82
2023/12/09 02:19:39;;;;;;;3.33;2.80;;;0.20;99.90;;;;;;4914742;29;20288;-83
2023/12/09 02:22:10;;;;;;;2.58;2.45;;;0.20;99.90;;;;;;4906103;29;20197;-89
2023/12/09 02:24:37;;;;;;;2.50;2.40;;;0.20;99.90;;;;;;4911689;29;20577;-83
2023/12/09 02:27:12;;;;;;;2.05;1.95;;;0.20;99.90;;;;;;4895741;29;20237;-82
2023/12/09 02:30:03;;;;;;;2.05;1.95;;;0.20;99.90;;;;;;4896006;29;20216;-83
2023/12/09 02:32:34;;;;;;;5.97;4.07;;;0.20;99.90;;;;;;4903046;29;20213;-83
2023/12/09 02:35:05;;;;;;;2.25;2.15;;;0.20;99.90;;;;;;4906963;29;20217;-83
2023/12/09 02:37:34;;;;;;;2.33;2.13;;;0.20;99.90;;;;;;4892239;29;20282;-81
2023/12/09 02:40:02;;;;;;;4.13;3.72;;;0.20;99.90;;;;;;4901727;29;20214;-81
2023/12/09 02:42:29;;;;;;;0.82;0.82;;;0.20;99.90;;;;;;4904779;29;20229;-81
2023/12/09 02:44:57;;;;;;;3.72;3.53;;;0.20;99.90;;;;;;4911573;29;20293;-82
2023/12/09 02:47:25;;;;;;;5.97;3.95;;;0.20;99.90;;;;;;4910387;29;20221;-82
2023/12/09 02:49:54;;;;;;;2.83;1.40;;;0.20;99.90;;;;;;4905213;29;20237;-85
2023/12/09 02:52:21;;;;;;;3.05;2.92;;;0.20;99.90;;;;;;4912543;29;20255;-83
2023/12/09 02:54:48;;;;;;;5.22;2.78;;;0.20;99.90;;;;;;4902878;29;20220;-83
2023/12/09 02:57:16;;;;;;;0.70;0.70;;;0.20;99.90;;;;;;4895466;29;20236;-84
2023/12/09 02:59:43;;;;;;;4.75;3.85;;;0.20;99.90;;;;;;4904351;29;20232;-81
2023/12/09 03:02:10;;;;;;;3.00;2.38;;;0.20;99.90;;;;;;4903486;29;20216;-82
2023/12/09 03:04:38;;;;;;;4.93;4.45;;;0.20;99.90;;;;;;4916532;29;20244;-83
2023/12/09 03:07:06;;;;;;;1.40;1.40;;;0.30;99.90;;;;;;4915179;29;20314;-84
2023/12/09 03:09:33;;;;;;;7.82;2.20;;;0.30;99.90;;;;;;4907830;29;20623;-85
2023/12/09 03:12:04;;;;;;;3.47;3.28;;;0.20;99.90;;;;;;4911463;29;20214;-82
2023/12/09 03:14:31;;;;;;;2.63;2.30;;;0.20;99.90;;;;;;4915857;29;20304;-83
2023/12/09 03:16:58;;;;;;;2.75;2.65;;;0.20;99.90;;;;;;4919811;29;20276;-84
2023/12/09 03:19:27;;;;;;;2.50;2.40;;;0.20;99.90;;;;;;4910413;29;20265;-83
2023/12/09 03:21:55;;;;;;;2.60;2.47;;;0.20;99.90;;;;;;4896565;29;20214;-84
2023/12/09 03:24:22;;;;;;;2.08;1.98;;;0.20;99.90;;;;;;4908669;29;20240;-84
2023/12/09 03:26:51;;;;;;;4.28;3.60;;;0.20;99.90;;;;;;4905248;29;20206;-83
2023/12/09 03:29:20;;;;;;;1.90;1.73;;;0.30;99.90;;;;;;4917651;29;20627;-83
2023/12/09 03:31:49;;;;;;;1.15;1.15;;;0.20;99.90;;;;;;4917128;29;20255;-86
2023/12/09 03:34:16;;;;;;;1.33;1.33;;;0.20;99.90;;;;;;4911469;29;20510;-87
2023/12/09 03:36:45;;;;;;;10.48;3.42;;;0.20;99.90;;;;;;4909396;29;20256;-84
2023/12/09 03:39:12;;;;;;;1.50;1.40;;;0.30;99.90;;;;;;4906790;29;20230;-85
2023/12/09 03:41:40;;;;;;;3.17;2.70;;;0.20;99.90;;;;;;4916933;29;20209;-84
2023/12/09 03:44:07;;;;;;;6.10;5.70;;;0.20;99.90;;;;;;5028171;23;20322;-85
2023/12/09 03:46:36;;;;;;;1.42;1.42;;;0.30;99.90;;;;;;4910126;29;20308;-85
2023/12/09 03:49:06;;;;;;;2.38;2.28;;;0.30;99.90;;;;;;4915552;29;20223;-83
2023/12/09 03:51:36;;;;;;;3.05;2.85;;;0.20;99.90;;;;;;4907229;29;20221;-87
2023/12/09 03:54:03;;;;;;;5.28;4.88;;;0.30;99.90;;;;;;4911561;29;20218;-86
2023/12/09 03:56:45;;;;;;;2.08;1.98;;;0.30;99.90;;;;;;4899721;29;20205;-86
2023/12/09 03:59:19;;;;;;;2.85;2.65;;;0.20;99.90;;;;;;4912961;29;20205;-83
2023/12/09 04:01:52;;;;;;;2.22;2.13;;;0.20;99.90;;;;;;4917927;29;20225;-85
2023/12/09 04:04:26;;;;;;;1.00;1.00;;;0.30;99.90;;;;;;4912047;29;20245;-83
2023/12/09 04:06:53;;;;;;;4.13;3.05;;;0.30;99.90;;;;;;4910686;29;20577;-84
2023/12/09 04:09:22;;;;;;;2.92;2.70;;;0.20;99.90;;;;;;4918190;29;20212;-86
2023/12/09 04:11:52;;;;;;;2.10;2.00;;;0.20;99.90;;;;;;4923267;29;20201;-81
2023/12/09 04:14:20;;;;;;;3.35;3.10;;;0.20;99.90;;;;;;4917381;29;20199;-83
2023/12/09 04:17:09;;;;;;;2.22;2.03;;;0.20;99.90;;;;;;4906792;29;20285;-83
2023/12/09 04:19:36;;;;;;;2.22;2.13;;;0.30;99.90;;;;;;4912706;29;20284;-82
2023/12/09 04:22:03;;;;;;;3.45;3.15;;;0.20;99.90;;;;;;4915944;29;20241;-82
2023/12/09 04:24:31;;;;;;;1.15;1.15;;;0.20;99.90;;;;;;4905968;29;20248;-82
2023/12/09 04:26:59;;;;;;;0.90;0.90;;;0.20;99.90;;;;;;4907988;29;20230;-83
2023/12/09 04:29:31;;;;;;;2.88;2.67;;;0.20;99.90;;;;;;4909287;29;20216;-84
2023/12/09 04:31:59;;;;;;;3.35;3.25;;;0.20;99.90;;;;;;4910385;29;20284;-81
2023/12/09 04:34:26;;;;;;;1.15;1.15;;;0.20;99.90;;;;;;4910042;29;20217;-82
2023/12/09 04:36:53;;;;;;;4.30;4.05;;;0.20;99.90;;;;;;4912037;29;20246;-80
2023/12/09 04:39:20;;;;;;;1.20;1.20;;;0.20;99.90;;;;;;4912243;29;20209;-79
2023/12/09 04:41:49;;;;;;;1.20;1.20;;;0.20;99.90;;;;;;4903515;29;20237;-80
2023/12/09 04:44:16;;;;;;;1.00;1.00;;;0.20;99.90;;;;;;4908389;29;20237;-80
2023/12/09 04:46:43;;;;;;;3.92;3.72;;;0.20;99.90;;;;;;4924962;29;20280;-82
2023/12/09 04:49:11;;;;;;;1.35;1.35;;;0.20;99.90;;;;;;4905030;29;20324;-79
2023/12/09 04:51:38;;;;;;;3.40;3.20;;;0.30;99.90;;;;;;4906339;29;20217;-81
2023/12/09 04:54:05;;;;;;;1.75;1.65;;;0.20;99.90;;;;;;4902667;29;20240;-81
2023/12/09 04:56:33;;;;;;;0.82;0.82;;;0.20;99.90;;;;;;4906761;29;20214;-84
2023/12/09 04:59:02;;;;;;;1.40;1.35;;;0.20;99.90;;;;;;4911692;29;20213;-81
2023/12/09 05:01:29;;;;;;;2.08;1.98;;;0.20;99.90;;;;;;4914085;29;20206;-82
2023/12/09 05:03:56;;;;;;;3.15;2.95;;;0.30;99.90;;;;;;4903731;29;20213;-81
2023/12/09 05:06:24;;;;;;;1.90;1.80;;;0.30;99.90;;;;;;4914618;29;20241;-81
2023/12/09 05:08:52;;;;;;;3.55;2.20;;;0.30;99.90;;;;;;4912578;29;20208;-80
2023/12/09 05:11:22;;;;;;;4.50;4.22;;;0.30;99.90;;;;;;4913971;29;20220;-81
2023/12/09 05:13:50;;;;;;;0.77;0.77;;;0.30;99.90;;;;;;4911033;29;20281;-81
2023/12/09 05:16:18;;;;;;;1.08;1.02;;;0.30;99.90;;;;;;4897345;29;20210;-82
2023/12/09 05:18:45;;;;;;;1.73;1.67;;;0.30;99.90;;;;;;4893662;29;20599;-83
2023/12/09 05:21:15;;;;;;;7.35;3.35;;;0.30;99.90;;;;;;4905223;29;20220;-80
2023/12/09 05:23:42;;;;;;;4.53;4.13;;;0.30;99.90;;;;;;4908830;29;20248;-83
2023/12/09 05:26:19;;;;;;;2.30;2.10;;;0.30;99.90;;;;;;4907403;29;20235;-82
2023/12/09 05:28:53;;;;;;;4.72;1.95;;;0.40;99.90;;;;;;4906964;29;20205;-86
2023/12/09 05:31:22;;;;;;;2.00;1.90;;;0.30;99.90;;;;;;4896523;29;20219;-81
2023/12/09 05:33:50;;;;;;;3.42;2.10;;;0.30;99.90;;;;;;4927251;29;20209;-82
2023/12/09 05:36:18;;;;;;;5.15;2.97;;;0.30;99.90;;;;;;4913737;29;20225;-82
2023/12/09 05:38:45;;;;;;;3.13;3.03;;;0.30;99.90;;;;;;4914600;29;20221;-82
2023/12/09 05:41:14;;;;;;;1.95;1.85;;;0.40;99.90;;;;;;4915124;29;20224;-81
2023/12/09 05:43:43;;;;;;;2.10;2.00;;;0.30;99.90;;;;;;4915546;29;20234;-81
2023/12/09 05:46:18;;;;;;;3.85;3.55;;;0.40;99.90;;;;;;4909048;29;20252;-86
2023/12/09 05:48:47;;;;;;;1.38;1.35;;;0.40;99.90;;;;;;4918650;29;20208;-82
2023/12/09 05:51:14;;;;;;;2.78;2.67;;;0.40;99.90;;;;;;4912602;29;20503;-82
2023/12/09 05:53:42;;;;;;;4.03;1.40;;;0.40;99.90;;;;;;4912896;29;20236;-82
2023/12/09 05:56:11;;;;;;;0.98;0.98;;;0.40;99.90;;;;;;4897684;29;20285;-83
2023/12/09 05:58:40;;;;;;;1.98;1.88;;;0.40;99.90;;;;;;4914520;29;20217;-81
2023/12/09 06:01:08;;;;;;;3.40;3.15;;;0.40;99.90;;;;;;4899697;29;20313;-84
2023/12/09 06:03:36;;;;;;;5.13;2.03;;;0.40;99.90;;;;;;4905772;29;20217;-87
2023/12/09 06:06:04;;;;;;;2.25;2.15;;;0.40;99.90;;;;;;4915523;29;20241;-81
2023/12/09 06:08:32;;;;;;;4.18;3.97;;;0.50;99.90;;;;;;4919436;29;20209;-84
2023/12/09 06:10:59;;;;;;;0.95;0.95;;;0.40;99.90;;;;;;4919881;29;20241;-81
2023/12/09 06:13:28;;;;;;;1.38;1.27;;;0.40;99.90;;;;;;4917781;29;20190;-85
2023/12/09 06:15:55;;;;;;;3.75;3.53;;;0.50;99.90;;;;;;4912954;29;20218;-83
2023/12/09 06:18:23;;;;;;;2.38;2.28;;;0.50;99.90;;;;;;4909054;29;20273;-84
2023/12/09 06:20:50;;;;;;;2.35;2.17;;;0.50;99.90;;;;;;4915238;29;20217;-85
2023/12/09 06:23:17;;;;;;;1.75;1.73;;;0.50;99.90;;;;;;4918557;29;20217;-84
2023/12/09 06:25:45;;;;;;;1.38;1.38;;;0.50;99.90;;;;;;4931282;29;20568;-87
2023/12/09 06:28:12;;;;;;;1.50;1.30;;;0.50;99.90;;;;;;4923138;29;20238;-84
2023/12/09 06:30:39;;;;;;;0.73;0.73;;;0.50;99.90;;;;;;4924212;29;20236;-82
2023/12/09 06:33:06;;;;;;;3.78;3.47;;;0.50;99.90;;;;;;4910806;29;20269;-82
2023/12/09 06:35:33;;;;;;;1.98;1.88;;;0.50;99.90;;;;;;4919988;29;20278;-85
2023/12/09 06:38:00;;;;;;;3.78;3.45;;;0.50;99.90;;;;;;4918683;29;20194;-85
2023/12/09 06:40:28;;;;;;;2.25;2.15;;;0.50;99.90;;;;;;4909391;29;20235;-85
2023/12/09 06:42:54;;;;;;;2.58;2.47;;;0.50;99.90;;;;;;4901923;29;20457;-83
2023/12/09 06:45:22;;;;;;;3.78;3.58;;;0.60;99.90;;;;;;4905899;29;20292;-89
2023/12/09 06:47:53;;;;;;;2.13;2.03;;;0.50;99.90;;;;;;5161027;23;21287;-83
2023/12/09 06:50:22;;;;;;;7.68;6.82;;;0.60;99.90;;;;;;4902221;29;20319;-83
2023/12/09 06:52:49;;;;;;;3.58;3.33;;;0.50;99.90;;;;;;4902994;29;20281;-82
2023/12/09 06:55:16;;;;;;;17.95;3.55;;;0.60;99.90;;;;;;4906961;29;20559;-81
2023/12/09 06:57:43;;;;;;;1.63;1.63;;;0.60;99.90;;;;;;4904586;29;20573;-80
2023/12/09 07:00:12;;;;;;;1.08;1.08;;;0.60;99.90;;;;;;4899343;29;20217;-79
2023/12/09 07:02:39;;;;;;;2.25;2.15;;;0.60;99.90;;;;;;4900879;29;20225;-83
2023/12/09 07:05:22;;;;;;;3.60;3.40;;;0.60;99.90;;;;;;4892765;29;20210;-79
2023/12/09 07:07:50;;;;;;;3.95;3.65;;;0.70;99.90;;;;;;4905787;29;20281;-81
2023/12/09 07:10:18;;;;;;;2.00;1.90;;;0.70;99.90;;;;;;4901117;29;20209;-81
2023/12/09 07:12:45;;;;;;;3.70;3.50;;;0.70;99.90;;;;;;4899969;29;20209;-80
2023/12/09 07:15:13;;;;;;;1.58;1.48;;;0.70;99.90;;;;;;4902338;29;20283;-80
2023/12/09 07:17:40;;;;;;;1.58;1.52;;;0.70;99.90;;;;;;4901051;29;20333;-79
2023/12/09 07:20:08;;;;;;;1.90;1.80;;;0.70;99.90;;;;;;4901559;29;20239;-79
2023/12/09 07:22:37;;;;;;;1.85;1.75;;;0.70;99.90;;;;;;4906763;29;20240;-80
2023/12/09 07:25:04;;;;;;;2.55;1.15;;;0.70;99.90;;;;;;4903152;29;20237;-80
2023/12/09 07:27:31;;;;;;;3.60;2.67;;;0.80;99.90;;;;;;4906817;29;20433;-79
2023/12/09 07:30:00;;;;;;;1.08;1.08;;;0.80;99.90;;;;;;4906670;29;20206;-82
2023/12/09 07:32:27;;;;;;;0.90;0.90;;;0.90;99.90;;;;;;4903513;29;20221;-87
2023/12/09 07:34:55;;;;;;;2.70;2.60;;;0.80;99.90;;;;;;4909299;29;20209;-80
2023/12/09 07:37:23;;;;;;;2.35;2.25;;;0.80;99.90;;;;;;4897082;29;20249;-79
2023/12/09 07:39:51;;;;;;;4.10;3.90;;;0.80;99.90;;;;;;4910610;29;20451;-80
2023/12/09 07:42:19;;;;;;;0.68;0.68;;;0.80;99.90;;;;;;4904920;29;20697;-81
2023/12/09 07:44:46;;;;;;;1.02;1.02;;;0.80;99.90;;;;;;4904266;29;20213;-79
2023/12/09 07:47:12;;;;;;;2.30;2.17;;;0.90;99.90;;;;;;4904994;29;20235;-79
2023/12/09 07:49:41;;;;;;;2.60;2.47;;;0.90;99.90;;;;;;4912812;29;20548;-79
2023/12/09 07:52:09;;;;;;;4.97;4.50;;;0.90;99.90;;;;;;4905448;29;20214;-80
2023/12/09 07:54:36;;;;;;;0.85;0.85;;;0.90;99.90;;;;;;4905712;29;20280;-79
2023/12/09 07:57:04;;;;;;;0.50;0.50;;;0.90;99.90;;;;;;4901681;29;20266;-81
2023/12/09 07:59:33;;;;;;;1.70;1.60;;;0.90;99.90;;;;;;4911751;29;20288;-80
2023/12/09 08:02:00;;;;;;;2.97;2.80;;;0.90;99.90;;;;;;4907855;29;20691;-80
2023/12/09 08:04:27;;;;;;;1.30;1.30;;;0.90;99.90;;;;;;4906637;29;20209;-80
2023/12/09 08:06:54;;;;;;;2.83;2.63;;;1.00;99.90;;;;;;4912577;29;20301;-80
2023/12/09 08:09:21;;;;;;;1.05;1.05;;;1.00;99.90;;;;;;4905667;29;20217;-81
2023/12/09 08:11:48;;;;;;;1.80;1.77;;;1.00;99.90;;;;;;4916345;29;20553;-82
2023/12/09 08:14:19;;;;;;;2.67;2.58;;;1.00;99.90;;;;;;4904098;29;20209;-79
2023/12/09 08:16:46;;;;;;;2.22;2.15;;;1.10;99.90;;;;;;4901461;29;20282;-80
2023/12/09 08:19:13;;;;;;;1.75;1.40;;;1.00;99.90;;;;;;4910850;29;20857;-80
2023/12/09 08:21:40;;;;;;;4.07;3.88;;;1.00;99.90;;;;;;4904279;29;20218;-82
2023/12/09 08:24:07;;;;;;;1.65;1.65;;;1.00;99.90;;;;;;4906367;29;20210;-80
2023/12/09 08:26:35;;;;;;;5.22;4.25;;;1.10;99.90;;;;;;4906433;29;20229;-81
2023/12/09 08:29:04;;;;;;;5.38;4.97;;;1.10;99.90;;;;;;4902042;29;20282;-80
2023/12/09 08:31:31;;;;;;;3.65;3.45;;;1.10;99.90;;;;;;4908614;29;20256;-81
2023/12/09 08:33:58;;;;;;;3.67;3.10;;;1.10;99.90;;;;;;4901251;29;20248;-80
2023/12/09 08:36:25;;;;;;;2.90;2.70;;;1.10;99.90;;;;;;4911460;29;20229;-79
2023/12/09 08:38:52;;;;;;;2.88;2.78;;;1.20;99.90;;;;;;4902941;29;20791;-81
2023/12/09 08:41:19;;;;;;;2.20;2.10;;;1.20;99.90;;;;;;4905326;29;20379;-81
2023/12/09 08:43:52;;;;;;;16.63;5.55;;;1.30;99.90;;;;;;4907006;29;20217;-79
2023/12/09 08:46:19;;;;;;;5.70;5.30;;;1.30;99.90;;;;;;4904209;29;20552;-79
2023/12/09 08:48:48;;;;;;;4.60;4.40;;;1.30;99.90;;;;;;4910240;29;20248;-77
2023/12/09 08:51:16;;;;;;;1.85;1.75;;;1.30;99.90;;;;;;4898625;29;20217;-77
2023/12/09 08:53:43;;;;;;;2.60;2.47;;;1.40;99.90;;;;;;4909172;29;20221;-78
2023/12/09 08:56:11;;;;;;;3.72;3.53;;;1.40;99.90;;;;;;4907153;29;20241;-76
2023/12/09 08:58:38;;;;;;;5.10;4.68;;;1.40;99.90;;;;;;4901682;29;20439;-79
2023/12/09 09:01:08;;;;;;;2.95;2.75;;;1.40;99.90;;;;;;4896445;29;20737;-80
2023/12/09 09:03:35;;;;;;;8.35;4.22;;;1.40;99.90;;;;;;4911206;29;20241;-80
2023/12/09 09:06:02;;;;;;;20.60;13.45;;;1.40;99.90;;;;;;4904533;29;20580;-81
2023/12/09 09:08:31;;;;;;;9.35;8.63;;;1.40;99.90;;;;;;4901976;29;20217;-81
2023/12/09 09:10:57;;;;;;;9.15;8.45;;;1.40;99.90;;;;;;4908349;29;20201;-81
2023/12/09 09:13:28;;;;;;;11.88;5.78;;;1.40;99.90;;;;;;4910998;29;20566;-81
2023/12/09 09:15:56;;;;;;;9.55;6.53;;;1.40;99.90;;;;;;4909633;29;20281;-84
2023/12/09 09:18:24;;;;;;;10.32;5.60;;;1.50;99.90;;;;;;4894098;29;20218;-80
2023/12/09 09:20:51;;;;;;;4.20;4.00;;;1.50;99.90;;;;;;4915399;29;20209;-82
2023/12/09 09:23:19;;;;;;;2.03;1.92;;;1.50;99.90;;;;;;4911298;29;20867;-81
2023/12/09 09:25:45;;;;;;;3.47;2.65;;;1.50;99.90;;;;;;4907283;29;20273;-82
2023/12/09 09:28:12;;;;;;;2.15;2.05;;;1.50;99.90;;;;;;4899133;29;20217;-82
2023/12/09 09:30:41;;;;;;;3.25;3.03;;;1.60;99.90;;;;;;4901049;29;20205;-82
2023/12/09 09:33:09;;;;;;;2.35;2.08;;;1.70;99.90;;;;;;4895978;29;20209;-82
2023/12/09 09:35:37;;;;;;;11.30;6.72;;;1.60;99.90;;;;;;4902798;29;20202;-83
2023/12/09 09:38:03;;;;;;;4.10;3.90;;;1.70;99.90;;;;;;4904495;29;20220;-83
2023/12/09 09:40:30;;;;;;;5.28;4.97;;;1.70;99.90;;;;;;4909002;29;20400;-82
2023/12/09 09:43:04;;;;;;;2.58;2.42;;;1.70;99.90;;;;;;4903295;29;20577;-83
2023/12/09 09:45:32;;;;;;;4.13;3.80;;;1.80;99.90;;;;;;4894977;29;20505;-84
2023/12/09 09:48:04;;;;;;;3.75;2.22;;;1.80;99.90;;;;;;4900485;29;20281;-81
2023/12/09 09:50:44;;;;;;;1.58;1.48;;;1.70;99.90;;;;;;4901329;29;20249;-83
2023/12/09 09:53:13;;;;;;;3.38;3.08;;;1.70;99.90;;;;;;4904446;29;20193;-84
2023/12/09 09:55:42;;;;;;;3.92;3.33;;;1.70;99.90;;;;;;4909363;29;20214;-86
2023/12/09 09:58:16;;;;;;;1.50;1.45;;;1.70;99.90;;;;;;4902421;29;20210;-85
2023/12/09 10:00:43;;;;;;;7.55;4.50;;;1.70;99.90;;;;;;4908529;29;20280;-85
2023/12/09 10:03:12;;;;;;;3.97;3.78;;;1.80;99.90;;;;;;4914460;29;20217;-84
2023/12/09 10:05:41;;;;;;;2.85;2.75;;;1.70;99.90;;;;;;4904918;29;20481;-84
2023/12/09 10:08:15;;;;;;;7.03;5.40;;;1.80;99.90;;;;;;4917324;29;20255;-83
2023/12/09 10:10:43;;;;;;;0.95;0.95;;;1.80;99.90;;;;;;4913363;29;20604;-84
2023/12/09 10:13:11;;;;;;;6.65;6.00;;;1.90;99.90;;;;;;4920489;29;20212;-81
2023/12/09 10:15:39;;;;;;;3.60;3.35;;;1.80;99.90;;;;;;4919263;29;20255;-82
2023/12/09 10:18:13;;;;;;;7.78;7.18;;;1.90;99.90;;;;;;4913591;29;20240;-82
2023/12/09 10:20:46;;;;;;;4.35;3.78;;;2.00;99.90;;;;;;4904999;29;20727;-83
2023/12/09 10:23:16;;;;;;;2.25;2.13;;;1.90;99.90;;;;;;4912466;29;20211;-82
2023/12/09 10:25:46;;;;;;;4.75;4.43;;;1.90;99.90;;;;;;4914869;29;20244;-83
2023/12/09 10:28:13;;;;;;;1.60;1.50;;;1.90;99.90;;;;;;4911559;29;20328;-82
2023/12/09 10:30:59;;;;;;;2.15;2.05;;;2.00;99.90;;;;;;4910395;29;20273;-83
2023/12/09 10:33:34;;;;;;;1.77;1.67;;;2.00;99.90;;;;;;4910082;29;20202;-83
2023/12/09 10:36:02;;;;;;;1.38;1.33;;;1.90;99.90;;;;;;4903058;29;20197;-81
2023/12/09 10:38:31;;;;;;;12.70;4.80;;;2.00;99.90;;;;;;4892530;29;20210;-82
2023/12/09 10:40:58;;;;;;;2.95;2.85;;;2.00;99.90;;;;;;4910250;29;20240;-83
2023/12/09 10:43:25;;;;;;;3.35;3.05;;;2.00;99.90;;;;;;4993555;23;20240;-81
2023/12/09 10:45:52;;;;;;;7.70;5.68;;;2.20;99.90;;;;;;4923585;29;20269;-83
2023/12/09 10:48:20;;;;;;;5.05;4.68;;;2.00;99.90;;;;;;4901872;29;20272;-82
2023/12/09 10:51:04;;;;;;;4.28;3.40;;;2.00;99.90;;;;;;4917406;29;20224;-86
2023/12/09 10:53:31;;;;;;;10.05;9.07;;;2.00;99.90;;;;;;4928374;29;20212;-87
2023/12/09 10:56:06;;;;;;;3.50;3.35;;;1.90;99.90;;;;;;4920330;29;20258;-86
2023/12/09 10:58:36;;;;;;;3.40;2.95;;;1.90;99.90;;;;;;4916941;29;20197;-88
2023/12/09 11:01:07;;;;;;;6.38;5.93;;;2.00;99.90;;;;;;4917480;29;20210;-86
2023/12/09 11:03:40;;;;;;;4.15;3.95;;;2.10;99.90;;;;;;4898207;29;20598;-90
2023/12/09 11:06:13;;;;;;;3.90;2.75;;;2.10;99.90;;;;;;4904703;29;20233;-88
2023/12/09 11:08:45;;;;;;;1.30;1.30;;;2.10;99.90;;;;;;4915411;29;20246;-83
2023/12/09 11:11:12;;;;;;;6.00;2.70;;;2.30;99.90;;;;;;4901430;29;20210;-86
2023/12/09 11:13:47;;;;;;;4.47;4.13;;;2.10;99.90;;;;;;4903479;29;20202;-88
2023/12/09 11:16:21;;;;;;;1.20;1.20;;;2.10;99.90;;;;;;4912292;29;20459;-88
2023/12/09 11:18:58;;;;;;;1.20;1.20;;;2.10;99.90;;;;;;4904700;29;20210;-89
2023/12/09 11:21:29;;;;;;;4.25;3.95;;;2.20;99.90;;;;;;4917107;29;20205;-90
2023/12/09 11:24:01;;;;;;;3.08;2.83;;;2.30;99.90;;;;;;4907299;29;20197;-88
2023/12/09 11:26:33;;;;;;;5.25;4.85;;;2.20;99.90;;;;;;4929156;29;20272;-87
2023/12/09 11:29:05;;;;;;;7.13;5.10;;;2.30;99.90;;;;;;4926299;29;20210;-89
2023/12/09 11:31:48;;;;;;;3.97;3.80;;;2.40;99.90;;;;;;4909261;29;20460;-89
2023/12/09 11:34:19;;;;;;;3.45;3.35;;;2.30;99.90;;;;;;4903163;29;20217;-88
2023/12/09 11:36:52;;;;;;;1.80;1.73;;;2.30;99.90;;;;;;4907919;29;20209;-86
2023/12/09 11:39:22;;;;;;;3.00;2.70;;;2.30;99.90;;;;;;4914548;29;20207;-90
2023/12/09 11:41:53;;;;;;;2.63;2.45;;;2.30;99.90;;;;;;4899300;29;20210;-81
2023/12/09 11:44:20;;;;;;;2.17;1.33;;;2.30;99.90;;;;;;4899646;29;20214;-87
2023/12/09 11:46:49;;;;;;;1.83;1.73;;;2.30;99.90;;;;;;4906329;29;20285;-85
2023/12/09 11:49:19;;;;;;;7.85;4.05;;;2.30;99.90;;;;;;4907140;29;20214;-84
2023/12/09 11:51:48;;;;;;;1.85;1.75;;;2.40;99.90;;;;;;4914574;29;20215;-87
2023/12/09 11:54:16;;;;;;;2.53;2.35;;;2.30;99.90;;;;;;4921190;29;20189;-86
2023/12/09 11:56:46;;;;;;;2.25;2.15;;;2.30;99.90;;;;;;4917069;29;20775;-82
2023/12/09 11:59:14;;;;;;;3.60;3.30;;;2.30;99.90;;;;;;4915857;29;20248;-84
2023/12/09 12:01:41;;;;;;;1.02;1.02;;;2.30;99.90;;;;;;4903351;29;20214;-84
2023/12/09 12:04:08;;;;;;;4.82;4.47;;;2.40;99.90;;;;;;4916011;29;20201;-86
2023/12/09 12:06:36;;;;;;;2.92;2.28;;;2.30;99.90;;;;;;4909479;29;20214;-82
2023/12/09 12:09:04;;;;;;;5.53;5.00;;;2.30;99.90;;;;;;4904691;29;20366;-84
2023/12/09 12:11:33;;;;;;;2.83;2.63;;;2.30;99.90;;;;;;4902820;29;20276;-84
2023/12/09 12:14:01;;;;;;;2.25;2.15;;;2.20;99.90;;;;;;4897737;29;20202;-82
2023/12/09 12:16:28;;;;;;;4.35;4.05;;;2.40;99.90;;;;;;4904800;29;20276;-84
2023/12/09 12:18:58;;;;;;;4.38;4.18;;;2.40;99.90;;;;;;4908067;29;20213;-83
2023/12/09 12:21:27;;;;;;;2.22;2.13;;;2.30;99.90;;;;;;4900600;29;20226;-83
2023/12/09 12:24:05;;;;;;;1.50;1.50;;;2.20;99.90;;;;;;4915752;29;20387;-82
2023/12/09 12:26:35;;;;;;;3.33;3.13;;;2.10;99.90;;;;;;4904067;29;20224;-82
2023/12/09 12:29:05;;;;;;;1.67;1.58;;;2.30;99.90;;;;;;4900815;29;20313;-82
2023/12/09 12:31:35;;;;;;;2.05;1.95;;;2.40;99.90;;;;;;4903614;29;20206;-83
2023/12/09 12:34:18;;;;;;;1.95;1.85;;;2.30;99.90;;;;;;4909576;29;20265;-82
2023/12/09 12:36:49;;;;;;;4.70;4.40;;;2.30;99.90;;;;;;4907107;29;20211;-80
2023/12/09 12:39:17;;;;;;;3.53;1.42;;;2.40;99.90;;;;;;4915625;29;20213;-80
2023/12/09 12:41:44;;;;;;;1.00;1.00;;;2.40;99.90;;;;;;4903105;29;20522;-85
2023/12/09 12:44:11;;;;;;;2.75;1.48;;;2.40;99.90;;;;;;4905042;29;20285;-83
2023/12/09 12:46:41;;;;;;;6.75;3.85;;;2.40;99.90;;;;;;4902277;29;20254;-85
2023/12/09 12:49:08;;;;;;;1.67;1.58;;;2.40;99.90;;;;;;4908049;29;20264;-82
2023/12/09 12:51:37;;;;;;;4.65;4.25;;;2.50;99.90;;;;;;4903286;29;20244;-80
2023/12/09 12:54:06;;;;;;;3.40;3.20;;;2.50;99.90;;;;;;4899731;29;20203;-81
2023/12/09 12:56:35;;;;;;;2.30;2.20;;;2.40;99.90;;;;;;4910659;29;20223;-80
2023/12/09 12:59:04;;;;;;;0.98;0.98;;;2.40;99.90;;;;;;4902830;29;20524;-85
2023/12/09 13:01:37;;;;;;;1.38;1.38;;;2.30;99.90;;;;;;4905918;29;20214;-82
2023/12/09 13:04:05;;;;;;;3.60;3.30;;;2.20;99.90;;;;;;4904463;29;20213;-82
2023/12/09 13:06:32;;;;;;;2.90;2.58;;;2.30;99.90;;;;;;4913132;29;20217;-86
2023/12/09 13:09:00;;;;;;;1.85;1.75;;;2.30;99.90;;;;;;4910908;29;20237;-80